createdAt,value
2022-10-07T00:07:59.561Z,70.36
2022-10-07T00:23:06.426Z,72.38
2022-10-07T00:36:51.247Z,72.95
2022-10-07T00:50:12.758Z,71.02
2022-10-07T00:56:36.113Z,69.95
2022-10-07T01:02:36.316Z,72.64
2022-10-07T01:16:26.750Z,70.45
2022-10-07T01:30:13.335Z,72.42
2022-10-07T01:36:12.728Z,73.34
2022-10-07T02:46:08.229Z,72.10
2022-10-07T02:52:31.668Z,72.03
2022-10-07T03:46:59.171Z,70.10
2022-10-07T03:53:00.778Z,72.12
2022-10-07T03:59:02.273Z,70.63
2022-10-07T04:36:22.266Z,73.39
2022-10-07T04:50:48.608Z,71.47
2022-10-07T05:36:38.492Z,73.25
2022-10-07T06:30:56.804Z,75.10
2022-10-07T06:37:18.137Z,76.34
2022-10-07T06:51:03.780Z,77.50
2022-10-07T06:58:17.671Z,77.13
2022-10-07T08:08:15.120Z,89.29
2022-10-07T08:14:18.264Z,89.09
2022-10-07T08:20:20.239Z,89.16
2022-10-07T08:26:24.549Z,88.10
2022-10-07T08:57:11.802Z,85.69
2022-10-07T09:03:10.414Z,85.08
2022-10-07T09:39:30.780Z,80.35
2022-10-07T09:46:16.240Z,79.78
2022-10-07T10:01:17.213Z,76.39
2022-10-07T10:06:52.968Z,74.96
2022-10-07T10:12:54.881Z,74.14
2022-10-07T10:19:14.508Z,72.65
2022-10-07T10:31:39.161Z,71.21
2022-10-07T10:37:18.777Z,71.59
2022-10-07T10:43:29.431Z,70.69
2022-10-07T10:58:26.064Z,68.86
2022-10-07T11:04:36.652Z,68.65
2022-10-07T11:10:57.577Z,68.39
2022-10-07T11:32:03.921Z,66.93
2022-10-07T11:38:04.702Z,65.56
2022-10-07T11:44:08.674Z,66.14
2022-10-07T11:50:29.684Z,65.50
2022-10-07T12:11:26.395Z,64.04
2022-10-07T12:17:47.793Z,64.86
2022-10-07T12:23:45.378Z,63.74
2022-10-07T12:38:54.660Z,67.25
2022-10-07T12:45:16.700Z,64.98
2022-10-07T13:21:30.864Z,65.05
2022-10-07T13:36:28.451Z,67.25
2022-10-07T14:06:59.047Z,66.95
2022-10-07T14:13:01.429Z,67.45
2022-10-07T14:18:58.972Z,67.57
2022-10-07T14:40:37.945Z,69.90
2022-10-07T14:55:33.995Z,70.17
2022-10-07T15:17:14.635Z,72.58
2022-10-07T15:32:11.521Z,74.58
2022-10-07T16:11:47.528Z,75.37
2022-10-07T16:17:47.313Z,75.12
2022-10-07T16:39:05.746Z,75.06
2022-10-07T16:45:05.647Z,75.37
2022-10-07T16:51:03.682Z,75.97
2022-10-07T16:57:07.543Z,77.72
2022-10-07T17:10:23.939Z,77.13
2022-10-07T17:15:31.601Z,77.04
2022-10-07T17:20:37.654Z,77.61
2022-10-07T17:25:46.439Z,77.36
2022-10-07T17:30:54.681Z,77.34
2022-10-07T17:48:30.928Z,77.46
2022-10-07T17:53:39.843Z,77.80
2022-10-07T17:58:47.737Z,78.50
2022-10-07T18:03:57.848Z,77.83
2022-10-07T18:17:17.521Z,76.92
2022-10-07T18:22:29.237Z,76.78
2022-10-07T18:27:36.863Z,77.34
2022-10-07T18:32:43.902Z,77.76
2022-10-07T18:38:13.224Z,77.78
2022-10-07T18:43:20.143Z,77.51
2022-10-07T18:48:26.999Z,77.49
2022-10-07T18:53:39.500Z,76.78
2022-10-07T18:58:53.611Z,76.46
2022-10-07T19:04:05.309Z,76.80
2022-10-07T19:09:20.245Z,76.19
2022-10-07T19:28:52.901Z,75.89
2022-10-07T19:34:02.620Z,76.45
2022-10-07T19:39:10.794Z,76.04
2022-10-07T19:44:18.573Z,76.65
2022-10-07T19:49:25.108Z,75.88
2022-10-07T19:54:36.516Z,76.06
2022-10-07T19:59:44.793Z,76.80
2022-10-07T20:04:56.078Z,77.38
2022-10-07T20:10:04.773Z,77.59
2022-10-07T20:15:13.749Z,77.87
2022-10-07T20:20:21.353Z,77.47
2022-10-07T20:25:27.647Z,77.10
2022-10-07T20:30:36.718Z,76.71
2022-10-07T20:35:44.005Z,76.49
2022-10-07T20:41:26.451Z,76.87
2022-10-07T20:46:34.754Z,76.40
2022-10-07T20:51:41.342Z,76.21
2022-10-07T20:56:49.202Z,76.60
2022-10-07T21:01:57.346Z,76.46
2022-10-07T21:07:03.679Z,76.56
2022-10-07T21:12:14.015Z,76.16
2022-10-07T21:17:21.961Z,76.07
2022-10-07T21:22:28.699Z,76.26
2022-10-07T21:27:35.221Z,75.95
2022-10-07T21:32:42.879Z,75.80
2022-10-07T21:37:49.353Z,76.13
2022-10-07T21:42:55.725Z,75.93
2022-10-07T21:48:03.503Z,75.54
2022-10-07T21:53:10.039Z,75.54
2022-10-07T21:58:20.796Z,76.31
2022-10-07T22:03:35.060Z,76.55
2022-10-07T22:08:53.050Z,76.73
2022-10-07T22:14:12.119Z,76.42
2022-10-07T22:19:23.291Z,76.81
2022-10-07T22:24:30.065Z,76.31
2022-10-07T22:29:38.230Z,76.58
2022-10-07T22:35:02.748Z,76.29
2022-10-07T22:40:10.696Z,75.78
2022-10-07T22:45:17.514Z,76.60
2022-10-07T22:50:25.241Z,76.47
2022-10-07T22:55:31.967Z,76.72
2022-10-07T23:00:38.634Z,76.39
2022-10-07T23:05:49.668Z,76.95
2022-10-07T23:10:59.374Z,77.29
2022-10-07T23:16:13.043Z,77.43
2022-10-07T23:21:28.474Z,77.47
2022-10-07T23:26:36.317Z,78.21
2022-10-07T23:31:42.584Z,77.89
2022-10-07T23:36:50.275Z,77.87
2022-10-07T23:41:56.496Z,77.38
2022-10-07T23:47:02.990Z,77.37
2022-10-07T23:52:10.623Z,77.40
2022-10-07T23:57:16.964Z,78.08
